Kezdőlap
METAR-TAF:

METAR-TAF

Repülőterek :

Magyarhradis, Csehország

földrajzi szélesség: 49-01-46N, földrajzi hosszúság: 017-26-23E, magasság: 177 m

Jelenlegi meteorológiai megfigyelések

A jelentés 1 órával és 47 perccel ezelõtt készült, 17:00 UTC
Északi szél 12 kt széllökések: 22 kt, észak-északnyugati és észak-északkeleti között változik
Hőmérséklet 6°C
Páratartalom 70%
Légköri nyomás 1013 hPa
Látótávolság 10 km, vagy több
Kevés felhő 2600 lábon, Cumulonimbus.
Kevés felhő 3500 lábon
Szakadozott felhőzet 4500 lábon
enyhe záporok,

METAR: LKKU 181700Z 36012G22KT 330V030 9999 -SHRA FEW026CB FEW035 BKN045 06/01 Q1013

Idő: 20:47 (18:47 UTC)


TAF: hiányzik

Meteorológiai megfigyelések és előrejelzések több, mint 4000 repülőtéren (METAR és TAF jelentéseket).

A térképen piros és sárga pontok jelzik az elérhető meteorológiai állomásokat.

Mozgassa az egeret a pont fölött, hogy megjelenjen az állomás neve.

Azután kattintson az időjárási megfigyelések és előrejelzések megtekintéséhez.

A térkép megváltoztatása: kattintson a fekete keresztel jelölt zöld gombra ráközelítéshez, a vonallal jelölt zöld gombra távolításhoz, vagy a zöld nyilakra a szomszédos térképek eléréséhez.


METAR-TAF: